Terminal Aerodrome Forecast
Issued by NWS Sterling, VA

Current Version | Previous Version | Text Only | Print | Product List | Glossary On
Versions: 1 2 3 4 5 6 7 8 9 10 11 12 13 14 15
790
FTUS41 KLWX 092344 RRA
TAFMRB
TAF
KMRB 092344Z 1000/1024 28008KT P6SM OVC040
     FM101300 28012KT P6SM BKN090=

USA.gov is the U.S. government's official web portal to all federal, state and local government web resources and services.